createdAt,value
2023-04-03T00:12:25.646Z,0.89
2023-04-03T00:27:25.840Z,2.04
2023-04-03T00:42:25.915Z,2.54
2023-04-03T00:57:25.445Z,2.38
2023-04-03T01:12:26.358Z,2.32
2023-04-03T01:42:25.499Z,4.03
2023-04-03T01:57:26.038Z,5.84
2023-04-03T02:27:25.937Z,7.67
2023-04-03T02:42:25.282Z,8.39
2023-04-03T02:57:26.032Z,24.11
2023-04-03T03:12:25.915Z,27.46
2023-04-03T03:27:26.258Z,20.41
2023-04-03T03:57:25.677Z,33.99
2023-04-03T04:12:25.443Z,16.15
2023-04-03T04:27:25.643Z,13.81
2023-04-03T04:42:25.478Z,12.93
2023-04-03T04:57:25.774Z,11.45
2023-04-03T05:12:25.341Z,11.46
2023-04-03T05:27:25.260Z,27.9
2023-04-03T05:42:25.153Z,12.96
2023-04-03T05:57:25.246Z,15.38
2023-04-03T06:27:25.844Z,11.12
2023-04-03T07:12:25.805Z,10.16
2023-04-03T07:27:25.823Z,7.46
2023-04-03T07:57:25.895Z,9.76
2023-04-03T08:12:25.178Z,10.03
2023-04-03T08:42:25.166Z,13.84
2023-04-03T08:57:25.700Z,11.27
2023-04-03T09:12:25.374Z,11.78
2023-04-03T09:27:26.157Z,13.54
2023-04-03T09:42:25.397Z,12.85
2023-04-03T09:57:25.581Z,13.02
2023-04-03T10:12:25.779Z,10.26
2023-04-03T10:27:26.099Z,9.39
2023-04-03T10:57:25.603Z,9.03
2023-04-03T11:12:25.454Z,8.88
2023-04-03T11:42:26.103Z,13.65
2023-04-03T11:57:26.098Z,11.35
2023-04-03T12:12:25.741Z,8.02
2023-04-03T12:27:25.728Z,7.62
2023-04-03T12:57:26.163Z,7.89
2023-04-03T13:12:25.750Z,8.32
2023-04-03T13:42:25.270Z,7.66
2023-04-03T13:57:25.747Z,10.54
2023-04-03T14:12:31.157Z,10.58
2023-04-03T14:42:25.716Z,6.46
2023-04-03T14:57:25.197Z,9.91
2023-04-03T15:12:25.885Z,9.7
2023-04-03T15:27:25.570Z,17.02
2023-04-03T15:42:25.907Z,13.91
2023-04-03T16:12:25.901Z,8.21
2023-04-03T16:27:25.671Z,9.15
2023-04-03T16:42:25.358Z,7.93
2023-04-03T16:57:25.686Z,8.07
2023-04-03T17:27:25.683Z,10.68
2023-04-03T17:42:25.426Z,8.54
2023-04-03T17:57:25.786Z,10.2
2023-04-03T18:12:25.332Z,10
2023-04-03T18:27:26.012Z,9.32
2023-04-03T18:42:25.954Z,9.47
2023-04-03T18:57:25.533Z,9.44
2023-04-03T19:12:25.874Z,9.7
2023-04-03T19:27:25.637Z,9.79
2023-04-03T19:42:26.979Z,8.74
2023-04-03T20:27:25.609Z,6.95
2023-04-03T20:42:26.675Z,6.34
2023-04-03T20:57:25.487Z,5.88
2023-04-03T21:12:25.938Z,10.77
2023-04-03T21:27:25.809Z,5.96
2023-04-03T21:42:35.474Z,6.08
2023-04-03T21:57:26.078Z,5.64
2023-04-03T22:12:25.679Z,6.52
2023-04-03T22:27:25.232Z,6.13
2023-04-03T22:42:25.687Z,6.81
2023-04-03T22:57:25.334Z,6.55
2023-04-03T23:12:26.542Z,6.79
2023-04-03T23:27:26.079Z,8.53
2023-04-03T23:42:26.028Z,8.98
2023-04-03T23:57:25.624Z,9.05
